sensor_id;sensor_type;location;lat;lon;timestamp;P1;durP1;ratioP1;P2;durP2;ratioP2
3995;SDS011;2012;49.794;9.722;2022-12-18T00:01:18;31.63;;;16.40;;
3995;SDS011;2012;49.794;9.722;2022-12-18T00:03:48;30.93;;;15.70;;
3995;SDS011;2012;49.794;9.722;2022-12-18T00:06:17;34.23;;;16.67;;
3995;SDS011;2012;49.794;9.722;2022-12-18T00:08:45;28.60;;;16.53;;
3995;SDS011;2012;49.794;9.722;2022-12-18T00:11:13;28.58;;;16.17;;
3995;SDS011;2012;49.794;9.722;2022-12-18T00:13:41;28.93;;;15.80;;
3995;SDS011;2012;49.794;9.722;2022-12-18T00:16:10;27.03;;;15.73;;
3995;SDS011;2012;49.794;9.722;2022-12-18T00:18:41;23.13;;;14.67;;
3995;SDS011;2012;49.794;9.722;2022-12-18T00:21:09;29.57;;;15.53;;
3995;SDS011;2012;49.794;9.722;2022-12-18T00:23:38;27.10;;;15.77;;
3995;SDS011;2012;49.794;9.722;2022-12-18T00:26:10;29.33;;;15.00;;
3995;SDS011;2012;49.794;9.722;2022-12-18T00:28:38;32.20;;;16.50;;
3995;SDS011;2012;49.794;9.722;2022-12-18T00:31:06;27.33;;;15.13;;
3995;SDS011;2012;49.794;9.722;2022-12-18T00:33:34;33.60;;;16.10;;
3995;SDS011;2012;49.794;9.722;2022-12-18T00:36:21;27.70;;;15.93;;
3995;SDS011;2012;49.794;9.722;2022-12-18T00:38:50;25.93;;;16.13;;
3995;SDS011;2012;49.794;9.722;2022-12-18T00:41:18;25.20;;;14.90;;
3995;SDS011;2012;49.794;9.722;2022-12-18T00:44:04;28.20;;;15.27;;
3995;SDS011;2012;49.794;9.722;2022-12-18T00:46:32;25.00;;;15.20;;
3995;SDS011;2012;49.794;9.722;2022-12-18T00:48:59;25.77;;;15.53;;
3995;SDS011;2012;49.794;9.722;2022-12-18T00:51:26;31.80;;;16.80;;
3995;SDS011;2012;49.794;9.722;2022-12-18T00:53:53;31.37;;;15.47;;
3995;SDS011;2012;49.794;9.722;2022-12-18T00:56:22;25.60;;;15.73;;
3995;SDS011;2012;49.794;9.722;2022-12-18T00:58:49;29.30;;;16.23;;
3995;SDS011;2012;49.794;9.722;2022-12-18T01:01:16;26.58;;;15.93;;
3995;SDS011;2012;49.794;9.722;2022-12-18T01:03:43;22.08;;;15.23;;
3995;SDS011;2012;49.794;9.722;2022-12-18T01:06:11;27.63;;;14.50;;
3995;SDS011;2012;49.794;9.722;2022-12-18T01:08:39;27.60;;;16.50;;
3995;SDS011;2012;49.794;9.722;2022-12-18T01:11:13;26.33;;;15.87;;
3995;SDS011;2012;49.794;9.722;2022-12-18T01:13:45;29.57;;;16.10;;
3995;SDS011;2012;49.794;9.722;2022-12-18T01:16:13;20.92;;;13.63;;
3995;SDS011;2012;49.794;9.722;2022-12-18T01:18:41;26.27;;;15.50;;
3995;SDS011;2012;49.794;9.722;2022-12-18T01:21:09;25.50;;;14.87;;
3995;SDS011;2012;49.794;9.722;2022-12-18T01:23:37;26.53;;;15.17;;
3995;SDS011;2012;49.794;9.722;2022-12-18T01:26:09;25.97;;;14.90;;
3995;SDS011;2012;49.794;9.722;2022-12-18T01:28:39;26.02;;;15.80;;
3995;SDS011;2012;49.794;9.722;2022-12-18T01:33:57;27.83;;;15.70;;
3995;SDS011;2012;49.794;9.722;2022-12-18T01:36:28;25.40;;;15.17;;
3995;SDS011;2012;49.794;9.722;2022-12-18T01:39:00;29.53;;;16.13;;
3995;SDS011;2012;49.794;9.722;2022-12-18T01:41:32;34.27;;;14.70;;
3995;SDS011;2012;49.794;9.722;2022-12-18T01:50:16;24.33;;;14.30;;
3995;SDS011;2012;49.794;9.722;2022-12-18T01:52:49;26.10;;;15.87;;
3995;SDS011;2012;49.794;9.722;2022-12-18T01:55:26;26.70;;;15.70;;
3995;SDS011;2012;49.794;9.722;2022-12-18T01:57:57;28.60;;;16.07;;
3995;SDS011;2012;49.794;9.722;2022-12-18T02:00:25;37.93;;;16.27;;
3995;SDS011;2012;49.794;9.722;2022-12-18T02:02:53;32.60;;;17.10;;
3995;SDS011;2012;49.794;9.722;2022-12-18T02:05:31;43.75;;;17.80;;
3995;SDS011;2012;49.794;9.722;2022-12-18T02:08:08;26.27;;;15.73;;
3995;SDS011;2012;49.794;9.722;2022-12-18T02:14:14;29.93;;;16.47;;
3995;SDS011;2012;49.794;9.722;2022-12-18T02:16:59;26.90;;;16.73;;
3995;SDS011;2012;49.794;9.722;2022-12-18T02:19:41;31.20;;;15.60;;
3995;SDS011;2012;49.794;9.722;2022-12-18T02:27:52;31.15;;;15.10;;
3995;SDS011;2012;49.794;9.722;2022-12-18T02:30:22;27.13;;;14.93;;
3995;SDS011;2012;49.794;9.722;2022-12-18T02:32:50;26.43;;;14.63;;
3995;SDS011;2012;49.794;9.722;2022-12-18T02:35:20;24.55;;;14.65;;
3995;SDS011;2012;49.794;9.722;2022-12-18T02:37:50;28.17;;;16.80;;
3995;SDS011;2012;49.794;9.722;2022-12-18T02:40:18;26.17;;;15.60;;
3995;SDS011;2012;49.794;9.722;2022-12-18T02:42:47;27.27;;;14.57;;
3995;SDS011;2012;49.794;9.722;2022-12-18T02:45:14;36.43;;;15.30;;
3995;SDS011;2012;49.794;9.722;2022-12-18T02:47:42;25.93;;;15.83;;
3995;SDS011;2012;49.794;9.722;2022-12-18T02:58:23;33.83;;;16.52;;
3995;SDS011;2012;49.794;9.722;2022-12-18T03:03:50;25.90;;;15.60;;
3995;SDS011;2012;49.794;9.722;2022-12-18T03:06:40;25.90;;;15.03;;
3995;SDS011;2012;49.794;9.722;2022-12-18T03:09:12;28.60;;;15.40;;
3995;SDS011;2012;49.794;9.722;2022-12-18T03:11:46;28.75;;;16.10;;
3995;SDS011;2012;49.794;9.722;2022-12-18T03:14:37;30.65;;;15.65;;
3995;SDS011;2012;49.794;9.722;2022-12-18T03:17:07;31.65;;;16.45;;
3995;SDS011;2012;49.794;9.722;2022-12-18T03:19:39;30.92;;;16.30;;
3995;SDS011;2012;49.794;9.722;2022-12-18T03:22:08;27.92;;;15.27;;
3995;SDS011;2012;49.794;9.722;2022-12-18T03:24:36;24.23;;;14.80;;
3995;SDS011;2012;49.794;9.722;2022-12-18T03:27:07;27.38;;;15.40;;
3995;SDS011;2012;49.794;9.722;2022-12-18T03:29:47;30.13;;;14.75;;
3995;SDS011;2012;49.794;9.722;2022-12-18T03:32:21;28.60;;;16.00;;
3995;SDS011;2012;49.794;9.722;2022-12-18T03:34:53;26.90;;;14.93;;
3995;SDS011;2012;49.794;9.722;2022-12-18T03:37:25;25.67;;;15.73;;
3995;SDS011;2012;49.794;9.722;2022-12-18T03:39:52;28.02;;;15.45;;
3995;SDS011;2012;49.794;9.722;2022-12-18T03:42:26;34.40;;;14.82;;
3995;SDS011;2012;49.794;9.722;2022-12-18T03:45:11;25.88;;;15.55;;
3995;SDS011;2012;49.794;9.722;2022-12-18T03:47:51;36.03;;;17.13;;
3995;SDS011;2012;49.794;9.722;2022-12-18T03:50:21;30.80;;;17.17;;
3995;SDS011;2012;49.794;9.722;2022-12-18T03:55:42;29.33;;;16.17;;
3995;SDS011;2012;49.794;9.722;2022-12-18T03:58:10;27.47;;;16.17;;
3995;SDS011;2012;49.794;9.722;2022-12-18T04:00:42;27.58;;;16.35;;
3995;SDS011;2012;49.794;9.722;2022-12-18T04:03:10;36.43;;;18.00;;
3995;SDS011;2012;49.794;9.722;2022-12-18T04:05:38;27.70;;;15.87;;
3995;SDS011;2012;49.794;9.722;2022-12-18T04:08:06;30.13;;;16.67;;
3995;SDS011;2012;49.794;9.722;2022-12-18T04:10:32;27.57;;;16.30;;
3995;SDS011;2012;49.794;9.722;2022-12-18T04:12:59;25.83;;;16.15;;
3995;SDS011;2012;49.794;9.722;2022-12-18T04:15:26;26.40;;;16.03;;
3995;SDS011;2012;49.794;9.722;2022-12-18T04:17:53;31.48;;;16.38;;
3995;SDS011;2012;49.794;9.722;2022-12-18T04:20:20;36.63;;;15.95;;
3995;SDS011;2012;49.794;9.722;2022-12-18T04:22:46;31.80;;;16.33;;
3995;SDS011;2012;49.794;9.722;2022-12-18T04:25:13;31.40;;;16.48;;
3995;SDS011;2012;49.794;9.722;2022-12-18T04:27:40;26.00;;;15.40;;
3995;SDS011;2012;49.794;9.722;2022-12-18T04:30:07;27.67;;;16.67;;
3995;SDS011;2012;49.794;9.722;2022-12-18T04:32:34;29.60;;;15.67;;
3995;SDS011;2012;49.794;9.722;2022-12-18T04:35:01;24.40;;;15.18;;
3995;SDS011;2012;49.794;9.722;2022-12-18T04:37:30;26.70;;;16.58;;
3995;SDS011;2012;49.794;9.722;2022-12-18T04:39:57;30.17;;;15.60;;
3995;SDS011;2012;49.794;9.722;2022-12-18T04:42:23;24.65;;;16.15;;
3995;SDS011;2012;49.794;9.722;2022-12-18T04:44:50;24.60;;;14.43;;
3995;SDS011;2012;49.794;9.722;2022-12-18T04:47:17;27.47;;;16.07;;
3995;SDS011;2012;49.794;9.722;2022-12-18T04:49:43;29.73;;;16.17;;
3995;SDS011;2012;49.794;9.722;2022-12-18T04:52:10;26.73;;;15.73;;
3995;SDS011;2012;49.794;9.722;2022-12-18T04:54:37;23.38;;;14.98;;
3995;SDS011;2012;49.794;9.722;2022-12-18T04:57:03;25.40;;;15.13;;
3995;SDS011;2012;49.794;9.722;2022-12-18T04:59:30;29.85;;;15.98;;
3995;SDS011;2012;49.794;9.722;2022-12-18T05:01:57;28.45;;;16.52;;
3995;SDS011;2012;49.794;9.722;2022-12-18T05:04:23;28.80;;;16.70;;
3995;SDS011;2012;49.794;9.722;2022-12-18T05:06:50;37.10;;;17.23;;
3995;SDS011;2012;49.794;9.722;2022-12-18T05:09:17;25.77;;;15.82;;
3995;SDS011;2012;49.794;9.722;2022-12-18T05:11:44;31.92;;;16.63;;
3995;SDS011;2012;49.794;9.722;2022-12-18T05:14:12;24.95;;;16.35;;
3995;SDS011;2012;49.794;9.722;2022-12-18T05:16:39;28.55;;;15.65;;
3995;SDS011;2012;49.794;9.722;2022-12-18T05:19:06;28.27;;;16.40;;
3995;SDS011;2012;49.794;9.722;2022-12-18T05:21:32;26.05;;;15.63;;
3995;SDS011;2012;49.794;9.722;2022-12-18T05:23:59;25.80;;;16.08;;
3995;SDS011;2012;49.794;9.722;2022-12-18T05:26:26;31.38;;;14.88;;
3995;SDS011;2012;49.794;9.722;2022-12-18T05:28:53;33.13;;;16.60;;
3995;SDS011;2012;49.794;9.722;2022-12-18T05:31:22;29.65;;;15.50;;
3995;SDS011;2012;49.794;9.722;2022-12-18T05:33:49;31.45;;;15.00;;
3995;SDS011;2012;49.794;9.722;2022-12-18T05:36:15;29.40;;;16.42;;
3995;SDS011;2012;49.794;9.722;2022-12-18T05:38:42;31.25;;;15.10;;
3995;SDS011;2012;49.794;9.722;2022-12-18T05:41:09;35.25;;;17.38;;
3995;SDS011;2012;49.794;9.722;2022-12-18T05:43:36;29.45;;;16.63;;
3995;SDS011;2012;49.794;9.722;2022-12-18T05:46:09;27.98;;;16.15;;
3995;SDS011;2012;49.794;9.722;2022-12-18T05:48:39;27.42;;;15.27;;
3995;SDS011;2012;49.794;9.722;2022-12-18T05:51:13;31.40;;;17.50;;
3995;SDS011;2012;49.794;9.722;2022-12-18T05:53:41;25.63;;;15.55;;
3995;SDS011;2012;49.794;9.722;2022-12-18T05:56:13;27.83;;;16.17;;
3995;SDS011;2012;49.794;9.722;2022-12-18T05:58:41;27.90;;;16.15;;
3995;SDS011;2012;49.794;9.722;2022-12-18T06:01:10;29.38;;;15.27;;
3995;SDS011;2012;49.794;9.722;2022-12-18T06:03:36;27.20;;;15.52;;
3995;SDS011;2012;49.794;9.722;2022-12-18T06:06:04;24.95;;;15.55;;
3995;SDS011;2012;49.794;9.722;2022-12-18T06:08:38;32.63;;;16.17;;
3995;SDS011;2012;49.794;9.722;2022-12-18T06:11:11;24.75;;;16.08;;
3995;SDS011;2012;49.794;9.722;2022-12-18T06:13:38;32.42;;;16.35;;
3995;SDS011;2012;49.794;9.722;2022-12-18T06:16:06;30.02;;;15.30;;
3995;SDS011;2012;49.794;9.722;2022-12-18T06:18:34;29.83;;;14.35;;
3995;SDS011;2012;49.794;9.722;2022-12-18T06:21:03;23.67;;;14.02;;
3995;SDS011;2012;49.794;9.722;2022-12-18T06:23:30;26.92;;;15.38;;
3995;SDS011;2012;49.794;9.722;2022-12-18T06:25:57;28.35;;;15.32;;
3995;SDS011;2012;49.794;9.722;2022-12-18T06:28:24;24.60;;;14.97;;
3995;SDS011;2012;49.794;9.722;2022-12-18T06:30:51;34.00;;;16.00;;
3995;SDS011;2012;49.794;9.722;2022-12-18T06:33:19;28.63;;;15.17;;
3995;SDS011;2012;49.794;9.722;2022-12-18T06:35:45;30.97;;;17.13;;
3995;SDS011;2012;49.794;9.722;2022-12-18T06:38:12;32.38;;;16.98;;
3995;SDS011;2012;49.794;9.722;2022-12-18T06:40:39;26.35;;;16.30;;
3995;SDS011;2012;49.794;9.722;2022-12-18T06:43:06;32.45;;;18.38;;
3995;SDS011;2012;49.794;9.722;2022-12-18T06:45:32;33.80;;;18.30;;
3995;SDS011;2012;49.794;9.722;2022-12-18T06:47:59;33.88;;;17.55;;
3995;SDS011;2012;49.794;9.722;2022-12-18T06:50:26;29.77;;;16.50;;
3995;SDS011;2012;49.794;9.722;2022-12-18T06:52:53;34.73;;;18.30;;
3995;SDS011;2012;49.794;9.722;2022-12-18T06:55:20;30.05;;;18.08;;
3995;SDS011;2012;49.794;9.722;2022-12-18T06:57:47;33.77;;;17.50;;
3995;SDS011;2012;49.794;9.722;2022-12-18T07:00:13;28.80;;;18.13;;
3995;SDS011;2012;49.794;9.722;2022-12-18T07:02:40;30.83;;;16.57;;
3995;SDS011;2012;49.794;9.722;2022-12-18T07:05:07;33.30;;;17.17;;
3995;SDS011;2012;49.794;9.722;2022-12-18T07:07:36;29.70;;;15.97;;
3995;SDS011;2012;49.794;9.722;2022-12-18T07:10:03;25.83;;;16.77;;
3995;SDS011;2012;49.794;9.722;2022-12-18T07:12:30;30.73;;;18.73;;
3995;SDS011;2012;49.794;9.722;2022-12-18T07:14:56;39.47;;;19.63;;
3995;SDS011;2012;49.794;9.722;2022-12-18T07:17:23;35.10;;;19.97;;
3995;SDS011;2012;49.794;9.722;2022-12-18T07:19:50;43.53;;;22.10;;
3995;SDS011;2012;49.794;9.722;2022-12-18T07:22:16;39.90;;;21.60;;
3995;SDS011;2012;49.794;9.722;2022-12-18T07:24:43;44.43;;;22.93;;
3995;SDS011;2012;49.794;9.722;2022-12-18T07:27:10;40.57;;;21.80;;
3995;SDS011;2012;49.794;9.722;2022-12-18T07:29:36;42.67;;;22.30;;
3995;SDS011;2012;49.794;9.722;2022-12-18T07:32:04;41.50;;;23.00;;
3995;SDS011;2012;49.794;9.722;2022-12-18T07:34:31;40.20;;;21.30;;
3995;SDS011;2012;49.794;9.722;2022-12-18T07:36:58;49.93;;;26.13;;
3995;SDS011;2012;49.794;9.722;2022-12-18T07:39:25;135.93;;;50.20;;
3995;SDS011;2012;49.794;9.722;2022-12-18T07:41:52;135.27;;;51.53;;
3995;SDS011;2012;49.794;9.722;2022-12-18T07:44:38;65.80;;;32.40;;
3995;SDS011;2012;49.794;9.722;2022-12-18T07:47:05;66.10;;;28.37;;
3995;SDS011;2012;49.794;9.722;2022-12-18T07:49:37;53.73;;;24.93;;
3995;SDS011;2012;49.794;9.722;2022-12-18T07:52:04;55.07;;;27.03;;
3995;SDS011;2012;49.794;9.722;2022-12-18T07:54:30;54.43;;;25.43;;
3995;SDS011;2012;49.794;9.722;2022-12-18T07:56:57;47.60;;;24.20;;
3995;SDS011;2012;49.794;9.722;2022-12-18T07:59:24;39.63;;;21.60;;
3995;SDS011;2012;49.794;9.722;2022-12-18T08:01:50;45.90;;;24.63;;
3995;SDS011;2012;49.794;9.722;2022-12-18T08:04:17;48.03;;;24.30;;
3995;SDS011;2012;49.794;9.722;2022-12-18T08:06:44;51.40;;;24.17;;
3995;SDS011;2012;49.794;9.722;2022-12-18T08:09:13;51.33;;;25.37;;
3995;SDS011;2012;49.794;9.722;2022-12-18T08:11:40;48.00;;;24.70;;
3995;SDS011;2012;49.794;9.722;2022-12-18T08:14:07;48.77;;;23.97;;
3995;SDS011;2012;49.794;9.722;2022-12-18T08:16:34;56.37;;;26.17;;
3995;SDS011;2012;49.794;9.722;2022-12-18T08:19:01;46.63;;;23.50;;
3995;SDS011;2012;49.794;9.722;2022-12-18T08:21:29;48.03;;;23.43;;
3995;SDS011;2012;49.794;9.722;2022-12-18T08:23:58;52.27;;;24.43;;
3995;SDS011;2012;49.794;9.722;2022-12-18T08:26:27;52.80;;;24.60;;
3995;SDS011;2012;49.794;9.722;2022-12-18T08:28:55;45.40;;;23.33;;
3995;SDS011;2012;49.794;9.722;2022-12-18T08:31:24;46.70;;;20.33;;
3995;SDS011;2012;49.794;9.722;2022-12-18T08:33:52;47.27;;;23.50;;
3995;SDS011;2012;49.794;9.722;2022-12-18T08:36:20;48.13;;;23.33;;
3995;SDS011;2012;49.794;9.722;2022-12-18T08:38:49;47.13;;;22.87;;
3995;SDS011;2012;49.794;9.722;2022-12-18T08:41:16;48.37;;;23.63;;
3995;SDS011;2012;49.794;9.722;2022-12-18T08:43:44;46.63;;;23.27;;
3995;SDS011;2012;49.794;9.722;2022-12-18T08:46:37;46.17;;;21.90;;
3995;SDS011;2012;49.794;9.722;2022-12-18T08:49:05;47.97;;;21.60;;
3995;SDS011;2012;49.794;9.722;2022-12-18T08:51:33;46.10;;;22.90;;
3995;SDS011;2012;49.794;9.722;2022-12-18T08:54:00;49.77;;;23.30;;
3995;SDS011;2012;49.794;9.722;2022-12-18T08:56:29;35.90;;;19.40;;
3995;SDS011;2012;49.794;9.722;2022-12-18T08:58:56;42.40;;;21.37;;
3995;SDS011;2012;49.794;9.722;2022-12-18T09:01:23;48.30;;;23.20;;
3995;SDS011;2012;49.794;9.722;2022-12-18T09:03:50;47.93;;;24.27;;
3995;SDS011;2012;49.794;9.722;2022-12-18T09:06:18;51.67;;;25.40;;
3995;SDS011;2012;49.794;9.722;2022-12-18T09:08:45;55.73;;;27.30;;
3995;SDS011;2012;49.794;9.722;2022-12-18T09:11:13;62.47;;;29.93;;
3995;SDS011;2012;49.794;9.722;2022-12-18T09:13:44;52.57;;;25.27;;
3995;SDS011;2012;49.794;9.722;2022-12-18T09:16:11;55.03;;;26.33;;
3995;SDS011;2012;49.794;9.722;2022-12-18T09:18:38;113.60;;;60.43;;
3995;SDS011;2012;49.794;9.722;2022-12-18T09:21:09;71.00;;;38.20;;
3995;SDS011;2012;49.794;9.722;2022-12-18T09:23:38;62.53;;;28.70;;
3995;SDS011;2012;49.794;9.722;2022-12-18T09:26:05;64.57;;;28.60;;
3995;SDS011;2012;49.794;9.722;2022-12-18T09:28:32;57.67;;;27.73;;
3995;SDS011;2012;49.794;9.722;2022-12-18T09:31:02;57.23;;;26.40;;
3995;SDS011;2012;49.794;9.722;2022-12-18T09:33:31;58.37;;;28.17;;
3995;SDS011;2012;49.794;9.722;2022-12-18T09:36:00;73.27;;;33.60;;
3995;SDS011;2012;49.794;9.722;2022-12-18T09:38:28;70.20;;;32.17;;
3995;SDS011;2012;49.794;9.722;2022-12-18T09:41:43;55.97;;;27.50;;
3995;SDS011;2012;49.794;9.722;2022-12-18T09:44:05;55.33;;;27.60;;
3995;SDS011;2012;49.794;9.722;2022-12-18T09:46:49;65.37;;;28.70;;
3995;SDS011;2012;49.794;9.722;2022-12-18T09:49:42;66.03;;;28.70;;
3995;SDS011;2012;49.794;9.722;2022-12-18T09:57:50;49.70;;;25.00;;
3995;SDS011;2012;49.794;9.722;2022-12-18T10:00:23;61.13;;;27.43;;
3995;SDS011;2012;49.794;9.722;2022-12-18T10:02:51;58.87;;;28.00;;
3995;SDS011;2012;49.794;9.722;2022-12-18T10:08:13;60.43;;;28.33;;
3995;SDS011;2012;49.794;9.722;2022-12-18T10:10:52;62.27;;;28.60;;
3995;SDS011;2012;49.794;9.722;2022-12-18T10:13:26;62.20;;;27.73;;
3995;SDS011;2012;49.794;9.722;2022-12-18T10:21:59;62.13;;;32.07;;
3995;SDS011;2012;49.794;9.722;2022-12-18T10:25:09;72.83;;;34.10;;
3995;SDS011;2012;49.794;9.722;2022-12-18T10:27:55;58.73;;;31.07;;
3995;SDS011;2012;49.794;9.722;2022-12-18T10:30:24;62.97;;;33.47;;
3995;SDS011;2012;49.794;9.722;2022-12-18T10:32:52;77.47;;;33.47;;
3995;SDS011;2012;49.794;9.722;2022-12-18T10:35:21;94.57;;;41.67;;
3995;SDS011;2012;49.794;9.722;2022-12-18T10:38:07;81.13;;;33.40;;
3995;SDS011;2012;49.794;9.722;2022-12-18T10:43:21;63.30;;;28.53;;
3995;SDS011;2012;49.794;9.722;2022-12-18T10:48:47;54.53;;;25.90;;
3995;SDS011;2012;49.794;9.722;2022-12-18T10:51:19;49.73;;;23.20;;
3995;SDS011;2012;49.794;9.722;2022-12-18T10:54:00;56.03;;;25.17;;
3995;SDS011;2012;49.794;9.722;2022-12-18T10:56:48;55.53;;;26.33;;
3995;SDS011;2012;49.794;9.722;2022-12-18T10:59:15;52.97;;;21.17;;
3995;SDS011;2012;49.794;9.722;2022-12-18T11:01:47;47.77;;;22.17;;
3995;SDS011;2012;49.794;9.722;2022-12-18T11:04:19;53.30;;;22.50;;
3995;SDS011;2012;49.794;9.722;2022-12-18T11:06:59;58.20;;;25.50;;
3995;SDS011;2012;49.794;9.722;2022-12-18T11:09:30;46.03;;;22.23;;
3995;SDS011;2012;49.794;9.722;2022-12-18T11:11:59;46.50;;;22.60;;
3995;SDS011;2012;49.794;9.722;2022-12-18T11:14:34;46.97;;;21.07;;
3995;SDS011;2012;49.794;9.722;2022-12-18T11:20:00;49.40;;;23.27;;
3995;SDS011;2012;49.794;9.722;2022-12-18T11:22:30;43.83;;;20.13;;
3995;SDS011;2012;49.794;9.722;2022-12-18T11:30:30;51.37;;;23.00;;
3995;SDS011;2012;49.794;9.722;2022-12-18T11:33:00;55.67;;;26.93;;
3995;SDS011;2012;49.794;9.722;2022-12-18T11:35:37;55.63;;;26.40;;
3995;SDS011;2012;49.794;9.722;2022-12-18T11:44:54;57.60;;;26.30;;
3995;SDS011;2012;49.794;9.722;2022-12-18T11:50:01;47.80;;;20.93;;
3995;SDS011;2012;49.794;9.722;2022-12-18T11:52:38;52.67;;;24.20;;
3995;SDS011;2012;49.794;9.722;2022-12-18T11:55:27;47.20;;;23.17;;
3995;SDS011;2012;49.794;9.722;2022-12-18T11:58:30;51.40;;;21.30;;
3995;SDS011;2012;49.794;9.722;2022-12-18T12:07:02;53.90;;;23.30;;
3995;SDS011;2012;49.794;9.722;2022-12-18T12:15:34;58.47;;;26.40;;
3995;SDS011;2012;49.794;9.722;2022-12-18T12:18:19;55.80;;;24.53;;
3995;SDS011;2012;49.794;9.722;2022-12-18T12:21:16;48.27;;;23.30;;
3995;SDS011;2012;49.794;9.722;2022-12-18T12:23:59;42.40;;;18.70;;
3995;SDS011;2012;49.794;9.722;2022-12-18T12:26:59;40.13;;;20.60;;
3995;SDS011;2012;49.794;9.722;2022-12-18T12:32:42;43.43;;;19.63;;
3995;SDS011;2012;49.794;9.722;2022-12-18T12:41:09;41.80;;;18.37;;
3995;SDS011;2012;49.794;9.722;2022-12-18T12:43:58;35.13;;;17.80;;
3995;SDS011;2012;49.794;9.722;2022-12-18T12:46:29;40.67;;;18.57;;
3995;SDS011;2012;49.794;9.722;2022-12-18T12:49:00;36.03;;;16.57;;
3995;SDS011;2012;49.794;9.722;2022-12-18T12:51:31;37.33;;;17.70;;
3995;SDS011;2012;49.794;9.722;2022-12-18T12:54:00;36.33;;;17.37;;
3995;SDS011;2012;49.794;9.722;2022-12-18T12:56:38;34.43;;;16.70;;
3995;SDS011;2012;49.794;9.722;2022-12-18T13:04:58;38.97;;;18.43;;
3995;SDS011;2012;49.794;9.722;2022-12-18T13:07:35;35.03;;;16.50;;
3995;SDS011;2012;49.794;9.722;2022-12-18T13:10:14;35.20;;;16.23;;
3995;SDS011;2012;49.794;9.722;2022-12-18T13:12:59;30.77;;;15.97;;
3995;SDS011;2012;49.794;9.722;2022-12-18T13:20:47;26.73;;;14.57;;
3995;SDS011;2012;49.794;9.722;2022-12-18T13:23:32;41.00;;;18.23;;
3995;SDS011;2012;49.794;9.722;2022-12-18T13:30:59;35.63;;;16.17;;
3995;SDS011;2012;49.794;9.722;2022-12-18T13:39:15;30.27;;;14.97;;
3995;SDS011;2012;49.794;9.722;2022-12-18T13:50:00;40.00;;;16.40;;
3995;SDS011;2012;49.794;9.722;2022-12-18T13:52:36;34.90;;;16.67;;
3995;SDS011;2012;49.794;9.722;2022-12-18T13:55:07;31.03;;;16.03;;
3995;SDS011;2012;49.794;9.722;2022-12-18T13:57:42;26.33;;;14.73;;
3995;SDS011;2012;49.794;9.722;2022-12-18T14:00:19;34.23;;;16.77;;
3995;SDS011;2012;49.794;9.722;2022-12-18T14:02:55;32.63;;;17.10;;
3995;SDS011;2012;49.794;9.722;2022-12-18T14:05:24;33.93;;;16.73;;
3995;SDS011;2012;49.794;9.722;2022-12-18T14:08:02;36.03;;;16.70;;
3995;SDS011;2012;49.794;9.722;2022-12-18T14:10:32;35.97;;;16.80;;
3995;SDS011;2012;49.794;9.722;2022-12-18T14:13:15;34.53;;;16.57;;
3995;SDS011;2012;49.794;9.722;2022-12-18T14:15:53;35.57;;;17.30;;
3995;SDS011;2012;49.794;9.722;2022-12-18T14:18:29;34.50;;;17.00;;
3995;SDS011;2012;49.794;9.722;2022-12-18T14:21:17;32.90;;;16.17;;
3995;SDS011;2012;49.794;9.722;2022-12-18T14:23:47;36.10;;;18.63;;
3995;SDS011;2012;49.794;9.722;2022-12-18T14:26:22;36.20;;;18.40;;
3995;SDS011;2012;49.794;9.722;2022-12-18T14:28:49;38.07;;;17.90;;
3995;SDS011;2012;49.794;9.722;2022-12-18T14:31:19;36.70;;;18.20;;
3995;SDS011;2012;49.794;9.722;2022-12-18T14:33:47;32.93;;;15.33;;
3995;SDS011;2012;49.794;9.722;2022-12-18T14:36:18;37.40;;;18.53;;
3995;SDS011;2012;49.794;9.722;2022-12-18T14:38:53;39.77;;;17.93;;
3995;SDS011;2012;49.794;9.722;2022-12-18T14:41:21;31.50;;;16.17;;
3995;SDS011;2012;49.794;9.722;2022-12-18T14:43:49;36.80;;;17.33;;
3995;SDS011;2012;49.794;9.722;2022-12-18T14:46:25;34.50;;;18.27;;
3995;SDS011;2012;49.794;9.722;2022-12-18T14:48:54;41.13;;;19.73;;
3995;SDS011;2012;49.794;9.722;2022-12-18T14:51:22;41.53;;;20.47;;
3995;SDS011;2012;49.794;9.722;2022-12-18T14:54:01;37.60;;;19.97;;
3995;SDS011;2012;49.794;9.722;2022-12-18T14:56:34;39.43;;;17.00;;
3995;SDS011;2012;49.794;9.722;2022-12-18T14:59:12;28.53;;;14.47;;
3995;SDS011;2012;49.794;9.722;2022-12-18T15:04:25;36.80;;;17.10;;
3995;SDS011;2012;49.794;9.722;2022-12-18T15:09:43;34.97;;;16.87;;
3995;SDS011;2012;49.794;9.722;2022-12-18T15:12:33;33.27;;;16.53;;
3995;SDS011;2012;49.794;9.722;2022-12-18T15:15:02;39.03;;;18.37;;
3995;SDS011;2012;49.794;9.722;2022-12-18T15:17:30;38.30;;;17.03;;
3995;SDS011;2012;49.794;9.722;2022-12-18T15:20:01;31.17;;;16.77;;
3995;SDS011;2012;49.794;9.722;2022-12-18T15:22:34;35.83;;;17.50;;
3995;SDS011;2012;49.794;9.722;2022-12-18T15:25:03;27.77;;;15.10;;
3995;SDS011;2012;49.794;9.722;2022-12-18T15:27:48;31.47;;;16.30;;
3995;SDS011;2012;49.794;9.722;2022-12-18T15:30:17;28.13;;;14.70;;
3995;SDS011;2012;49.794;9.722;2022-12-18T15:32:46;37.60;;;17.87;;
3995;SDS011;2012;49.794;9.722;2022-12-18T15:35:15;31.77;;;15.57;;
3995;SDS011;2012;49.794;9.722;2022-12-18T15:37:47;30.60;;;14.83;;
3995;SDS011;2012;49.794;9.722;2022-12-18T15:40:15;31.87;;;16.53;;
3995;SDS011;2012;49.794;9.722;2022-12-18T15:42:45;29.40;;;15.20;;
3995;SDS011;2012;49.794;9.722;2022-12-18T15:45:31;36.10;;;17.50;;
3995;SDS011;2012;49.794;9.722;2022-12-18T15:47:58;36.07;;;16.00;;
3995;SDS011;2012;49.794;9.722;2022-12-18T15:50:25;35.13;;;16.07;;
3995;SDS011;2012;49.794;9.722;2022-12-18T15:52:53;33.90;;;17.27;;
3995;SDS011;2012;49.794;9.722;2022-12-18T15:55:22;36.47;;;16.97;;
3995;SDS011;2012;49.794;9.722;2022-12-18T15:58:09;33.23;;;15.47;;
3995;SDS011;2012;49.794;9.722;2022-12-18T16:00:38;38.03;;;17.37;;
3995;SDS011;2012;49.794;9.722;2022-12-18T16:03:06;33.03;;;16.00;;
3995;SDS011;2012;49.794;9.722;2022-12-18T16:05:33;33.47;;;16.73;;
3995;SDS011;2012;49.794;9.722;2022-12-18T16:08:00;34.77;;;17.13;;
3995;SDS011;2012;49.794;9.722;2022-12-18T16:10:27;37.23;;;17.77;;
3995;SDS011;2012;49.794;9.722;2022-12-18T16:12:54;34.93;;;17.40;;
3995;SDS011;2012;49.794;9.722;2022-12-18T16:15:21;41.93;;;16.93;;
3995;SDS011;2012;49.794;9.722;2022-12-18T16:17:50;31.53;;;15.53;;
3995;SDS011;2012;49.794;9.722;2022-12-18T16:20:19;38.10;;;17.23;;
3995;SDS011;2012;49.794;9.722;2022-12-18T16:22:48;40.10;;;18.97;;
3995;SDS011;2012;49.794;9.722;2022-12-18T16:25:23;41.80;;;17.97;;
3995;SDS011;2012;49.794;9.722;2022-12-18T16:27:51;36.33;;;18.57;;
3995;SDS011;2012;49.794;9.722;2022-12-18T16:30:22;32.53;;;17.63;;
3995;SDS011;2012;49.794;9.722;2022-12-18T16:33:03;29.77;;;15.60;;
3995;SDS011;2012;49.794;9.722;2022-12-18T16:35:32;35.50;;;17.50;;
3995;SDS011;2012;49.794;9.722;2022-12-18T16:37:59;37.40;;;16.80;;
3995;SDS011;2012;49.794;9.722;2022-12-18T16:40:26;35.47;;;15.90;;
3995;SDS011;2012;49.794;9.722;2022-12-18T16:42:53;32.03;;;16.50;;
3995;SDS011;2012;49.794;9.722;2022-12-18T16:45:19;31.67;;;15.90;;
3995;SDS011;2012;49.794;9.722;2022-12-18T16:47:46;32.00;;;15.60;;
3995;SDS011;2012;49.794;9.722;2022-12-18T16:50:13;34.10;;;17.07;;
3995;SDS011;2012;49.794;9.722;2022-12-18T16:52:40;34.43;;;17.20;;
3995;SDS011;2012;49.794;9.722;2022-12-18T16:55:07;33.53;;;16.27;;
3995;SDS011;2012;49.794;9.722;2022-12-18T16:57:35;38.37;;;17.80;;
3995;SDS011;2012;49.794;9.722;2022-12-18T17:00:02;45.53;;;19.77;;
3995;SDS011;2012;49.794;9.722;2022-12-18T17:02:31;33.63;;;18.50;;
3995;SDS011;2012;49.794;9.722;2022-12-18T17:04:59;34.97;;;17.70;;
3995;SDS011;2012;49.794;9.722;2022-12-18T17:07:27;34.70;;;16.37;;
3995;SDS011;2012;49.794;9.722;2022-12-18T17:09:54;35.43;;;17.20;;
3995;SDS011;2012;49.794;9.722;2022-12-18T17:12:21;39.63;;;18.63;;
3995;SDS011;2012;49.794;9.722;2022-12-18T17:14:48;36.50;;;17.93;;
3995;SDS011;2012;49.794;9.722;2022-12-18T17:17:15;36.77;;;18.03;;